Aviation Digital Data Service (ADDS)

Output produced by METARs form (2121 UTC 01 December 2021)
found at http://aviationweather.gov/metar/data/
 
KBTR 012053Z 28008KT 10SM FEW046 24/13 A3010 RMK AO2 SLP193 T02390133 56025
KBTR 011740Z 0118/0218 22006KT P6SM FEW250 
     FM020800 00000KT 1SM BR SCT003 
     FM021000 00000KT 1/4SM FG BKN001 
     FM021500 00000KT P6SM FEW250